Time;durP1;ratioP1;P1;durP2;ratioP2;P2;SDS_P1;SDS_P2;PMS_P1;PMS_P2;Temp;Humidity;BMP_temperature;BMP_pressure;BME280_temperature;BME280_humidity;BME280_pressure;Samples;Min_cycle;Max_cycle;Signal;HPM_P1;HPM_P2
2023/11/10 00:02:21;;;;;;;16.50;8.00;;;;;;;10.47;83.58;97256.71;109219;1252;58945;-81
2023/11/10 00:04:51;;;;;;;13.20;5.50;;;;;;;10.53;83.20;97257.71;109229;1253;73346;-81
2023/11/10 00:07:17;;;;;;;46.10;20.00;;;;;;;10.56;82.84;97259.86;109240;1252;69716;-81
2023/11/10 00:09:45;;;;;;;10.80;7.70;;;;;;;10.57;82.47;97237.75;109218;1253;71290;-80
2023/11/10 00:12:12;;;;;;;4.00;2.30;;;;;;;10.62;81.05;97249.04;109213;1252;60236;-81
2023/11/10 00:14:42;;;;;;;8.30;3.10;;;;;;;10.71;80.84;97241.77;109207;1253;59897;-81
2023/11/10 00:17:09;;;;;;;4.40;2.50;;;;;;;10.73;81.27;97235.16;109172;1253;73810;-81
2023/11/10 00:19:37;;;;;;;6.60;3.60;;;;;;;10.70;81.32;97247.05;109173;1252;70823;-80
2023/11/10 00:22:04;;;;;;;8.00;6.60;;;;;;;10.66;81.94;97243.58;109188;1253;71879;-81
2023/11/10 00:24:35;;;;;;;8.10;5.30;;;;;;;10.64;82.01;97248.49;109159;1253;59632;-80
2023/11/10 00:27:01;;;;;;;4.50;2.50;;;;;;;10.64;81.42;97240.69;109182;1253;60236;-81
2023/11/10 00:29:28;;;;;;;14.20;7.00;;;;;;;10.71;81.13;97242.54;109220;1253;74600;-81
2023/11/10 00:31:54;;;;;;;7.10;4.50;;;;;;;10.73;79.71;97235.92;109181;1253;72245;-81
2023/11/10 00:34:21;;;;;;;10.20;5.00;;;;;;;10.78;80.05;97236.44;109209;1253;72803;-81
2023/11/10 00:36:48;;;;;;;6.50;3.70;;;;;;;10.79;81.08;97234.15;109185;1253;59716;-80
2023/11/10 00:39:17;;;;;;;5.30;2.40;;;;;;;10.75;80.75;97226.73;109208;1253;59206;-80
2023/11/10 00:41:44;;;;;;;14.30;7.40;;;;;;;10.71;80.48;97228.51;109239;1253;73027;-81
2023/11/10 00:44:11;;;;;;;6.70;2.30;;;;;;;10.75;79.26;97227.06;109235;1253;71152;-81
2023/11/10 00:46:37;;;;;;;9.10;5.60;;;;;;;10.81;79.63;97221.65;109212;1253;71807;-81
2023/11/10 00:49:04;;;;;;;4.30;3.50;;;;;;;10.82;80.12;97230.55;109205;1253;59925;-80
2023/11/10 00:51:32;;;;;;;3.90;1.90;;;;;;;10.75;78.73;97225.00;109199;1253;60323;-82
2023/11/10 00:54:00;;;;;;;8.30;3.30;;;;;;;10.70;79.73;97218.75;109183;1253;74549;-81
2023/11/10 00:56:26;;;;;;;10.40;5.10;;;;;;;10.66;79.66;97214.48;109198;1253;69985;-81
2023/11/10 00:58:53;;;;;;;4.40;2.20;;;;;;;10.62;79.42;97209.38;109190;1253;59054;-80
2023/11/10 01:01:20;;;;;;;4.80;2.00;;;;;;;10.65;80.00;97216.63;109186;1253;59000;-81
2023/11/10 01:03:46;;;;;;;16.50;9.50;;;;;;;10.64;79.52;97204.67;109204;1253;59015;-81
2023/11/10 01:06:14;;;;;;;11.30;6.30;;;;;;;10.64;79.22;97207.77;109227;1253;59645;-81
2023/11/10 01:08:41;;;;;;;13.60;7.00;;;;;;;10.65;79.89;97202.90;109232;1253;70543;-81
2023/11/10 01:11:07;;;;;;;14.60;6.40;;;;;;;10.63;79.78;97201.82;109235;1253;71123;-81
2023/11/10 01:13:37;;;;;;;15.10;5.50;;;;;;;10.66;79.22;97191.77;109155;1253;60478;-81
2023/11/10 01:16:04;;;;;;;14.30;11.10;;;;;;;10.69;78.96;97195.21;109173;1253;60888;-83
2023/11/10 01:18:33;;;;;;;11.50;9.20;;;;;;;10.69;78.42;97191.36;109189;1252;74189;-81
2023/11/10 01:21:01;;;;;;;5.90;4.10;;;;;;;10.72;77.91;97194.33;109185;1253;70656;-82
2023/11/10 01:23:27;;;;;;;9.60;3.90;;;;;;;10.81;77.49;97195.84;109230;1253;71090;-81
2023/11/10 01:25:54;;;;;;;6.50;2.60;;;;;;;10.85;78.11;97187.68;109219;1253;59024;-81
2023/11/10 01:28:20;;;;;;;4.00;2.30;;;;;;;10.88;77.02;97181.50;109205;1253;58957;-81
2023/11/10 01:30:47;;;;;;;10.60;8.60;;;;;;;10.96;76.61;97180.48;109256;1253;74346;-81
2023/11/10 01:33:13;;;;;;;7.00;4.20;;;;;;;10.98;76.84;97185.46;109178;1252;59584;-81
2023/11/10 01:35:40;;;;;;;9.90;3.20;;;;;;;10.99;76.50;97180.02;109214;1253;73801;-82
2023/11/10 01:38:08;;;;;;;6.60;3.50;;;;;;;10.99;76.28;97182.42;109212;1253;59805;-81
2023/11/10 01:40:41;;;;;;;7.40;4.60;;;;;;;11.04;76.15;97189.55;109235;1253;60776;-81
2023/11/10 01:43:13;;;;;;;5.80;3.50;;;;;;;11.06;75.52;97183.35;109235;1253;74730;-81
2023/11/10 01:45:40;;;;;;;8.20;2.90;;;;;;;11.14;74.79;97180.16;109225;1252;70923;-80
2023/11/10 01:48:07;;;;;;;36.00;16.60;;;;;;;11.19;75.21;97177.17;109180;1253;71130;-81
2023/11/10 01:50:34;;;;;;;14.00;7.00;;;;;;;11.21;74.94;97169.77;109222;1252;59015;-81
2023/11/10 01:53:04;;;;;;;9.70;8.70;;;;;;;11.20;74.77;97168.81;109179;1253;60337;-81
2023/11/10 01:55:30;;;;;;;5.80;3.20;;;;;;;11.19;74.84;97164.98;109211;1253;73147;-81
2023/11/10 01:57:57;;;;;;;7.20;3.00;;;;;;;11.17;74.78;97161.92;109092;1253;70534;-81
2023/11/10 02:00:29;;;;;;;5.10;3.30;;;;;;;11.16;74.87;97160.27;109200;1252;71348;-80
2023/11/10 02:03:04;;;;;;;13.30;10.50;;;;;;;11.25;73.47;97153.89;109211;1252;59124;-80
2023/11/10 02:05:31;;;;;;;11.50;6.00;;;;;;;11.33;73.02;97146.13;109212;1252;60513;-80
2023/11/10 02:07:57;;;;;;;9.00;3.20;;;;;;;11.32;73.27;97135.89;109213;1253;73537;-81
2023/11/10 02:10:24;;;;;;;6.10;2.40;;;;;;;11.27;73.49;97125.02;109193;1254;70583;-81
2023/11/10 02:12:56;;;;;;;9.00;2.70;;;;;;;11.23;73.61;97119.15;109144;1253;72817;-81
2023/11/10 02:15:23;;;;;;;6.80;5.10;;;;;;;11.22;73.32;97118.48;109235;1253;59102;-81
2023/11/10 02:17:49;;;;;;;6.50;3.50;;;;;;;11.22;73.32;97119.63;109184;1256;60347;-81
2023/11/10 02:20:16;;;;;;;6.40;2.40;;;;;;;11.23;73.70;97121.55;109208;1253;73339;-81
2023/11/10 02:22:43;;;;;;;8.10;3.80;;;;;;;11.20;73.79;97113.77;109228;1252;69330;-81
2023/11/10 02:25:14;;;;;;;3.80;1.70;;;;;;;11.15;73.99;97117.87;109182;1253;71565;-81
2023/11/10 02:27:41;;;;;;;11.30;9.00;;;;;;;11.19;73.58;97110.80;109201;1256;59282;-81
2023/11/10 02:30:07;;;;;;;4.80;3.40;;;;;;;11.17;73.61;97107.25;109206;1253;60198;-82
2023/11/10 02:32:34;;;;;;;5.10;2.40;;;;;;;11.18;73.25;97109.94;109207;1253;74579;-80
2023/11/10 02:35:01;;;;;;;7.20;2.80;;;;;;;11.19;73.09;97106.67;109224;1253;71087;-81
2023/11/10 02:37:28;;;;;;;3.20;2.30;;;;;;;11.21;73.19;97102.50;109225;1253;72984;-81
2023/11/10 02:39:54;;;;;;;6.10;4.10;;;;;;;11.21;73.36;97096.71;109203;1253;59589;-81
2023/11/10 02:42:20;;;;;;;8.90;4.40;;;;;;;11.18;73.57;97092.91;109193;1253;59068;-81
2023/11/10 02:44:47;;;;;;;6.00;2.80;;;;;;;11.14;73.83;97092.15;109226;1253;59265;-81
2023/11/10 02:47:13;;;;;;;5.40;2.40;;;;;;;11.14;73.77;97082.23;109225;1253;59065;-81
2023/11/10 02:49:40;;;;;;;7.40;4.10;;;;;;;11.11;73.77;97082.40;109214;1253;72292;-81
2023/11/10 02:52:06;;;;;;;5.70;3.20;;;;;;;11.11;74.04;97086.41;109182;1253;59089;-81
2023/11/10 02:54:33;;;;;;;7.50;3.40;;;;;;;11.14;73.78;97088.80;109223;1253;59383;-80
2023/11/10 02:57:00;;;;;;;9.70;2.80;;;;;;;11.17;73.15;97080.27;109196;1253;59085;-81
2023/11/10 02:59:26;;;;;;;3.10;2.00;;;;;;;11.21;73.05;97084.08;109181;1254;69615;-81
2023/11/10 03:01:53;;;;;;;4.60;2.50;;;;;;;11.24;72.75;97078.90;109164;1253;59628;-81
2023/11/10 03:04:19;;;;;;;6.80;2.10;;;;;;;11.26;72.58;97078.77;109194;1253;59394;-81
2023/11/10 03:06:46;;;;;;;3.30;1.80;;;;;;;11.28;72.41;97078.36;109237;1252;59421;-81
2023/11/10 03:09:13;;;;;;;6.10;2.80;;;;;;;11.29;72.70;97078.73;109229;1254;59050;-81
2023/11/10 03:11:40;;;;;;;5.10;3.00;;;;;;;11.31;72.58;97077.01;109222;1253;69477;-80
2023/11/10 03:14:06;;;;;;;4.50;3.00;;;;;;;11.29;72.85;97073.90;109190;1253;72240;-81
2023/11/10 03:16:33;;;;;;;3.50;1.90;;;;;;;11.23;73.30;97069.38;109193;1252;59691;-81
2023/11/10 03:18:59;;;;;;;2.70;1.70;;;;;;;11.22;73.01;97067.72;109217;1253;58860;-81
2023/11/10 03:21:27;;;;;;;4.20;2.30;;;;;;;11.21;73.24;97064.64;109193;1254;74815;-80
2023/11/10 03:23:53;;;;;;;7.60;3.80;;;;;;;11.18;73.43;97059.99;109150;1255;70950;-81
2023/11/10 03:26:20;;;;;;;7.70;2.50;;;;;;;11.14;73.80;97052.69;109182;1253;73170;-80
2023/11/10 03:28:47;;;;;;;5.60;3.10;;;;;;;11.10;73.77;97057.20;109124;1254;59088;-81
2023/11/10 03:31:14;;;;;;;8.40;3.40;;;;;;;11.08;73.73;97055.36;109218;1253;58933;-81
2023/11/10 03:33:40;;;;;;;4.60;2.70;;;;;;;11.10;73.85;97046.73;109210;1253;59591;-81
2023/11/10 03:36:08;;;;;;;5.70;3.40;;;;;;;11.10;73.89;97047.70;109219;1253;71521;-80
2023/11/10 03:38:34;;;;;;;4.20;2.20;;;;;;;11.09;73.70;97044.31;109210;1252;73963;-81
2023/11/10 03:41:01;;;;;;;4.40;2.80;;;;;;;11.14;73.37;97042.96;109197;1252;59085;-82
2023/11/10 03:43:28;;;;;;;6.60;3.10;;;;;;;11.18;73.09;97035.00;109120;1257;59598;-81
2023/11/10 03:45:55;;;;;;;4.00;2.80;;;;;;;11.17;73.03;97035.29;109215;1253;73051;-81
2023/11/10 03:48:23;;;;;;;7.90;4.60;;;;;;;11.16;73.14;97033.46;109173;1253;71754;-81
2023/11/10 03:50:49;;;;;;;6.60;3.60;;;;;;;11.14;73.33;97030.87;109110;1253;72240;-81
2023/11/10 03:53:16;;;;;;;5.40;2.50;;;;;;;11.12;73.31;97025.94;109189;1253;59120;-81
2023/11/10 03:55:43;;;;;;;6.10;3.10;;;;;;;11.11;73.27;97021.29;109167;1252;61011;-81
2023/11/10 03:58:10;;;;;;;3.90;2.80;;;;;;;11.10;73.35;97020.59;109185;1253;74534;-81
2023/11/10 04:00:37;;;;;;;21.70;10.00;;;;;;;11.08;73.44;97015.00;109227;1252;70623;-80
2023/11/10 04:03:04;;;;;;;5.60;2.40;;;;;;;11.09;73.49;97019.89;109199;1254;71077;-80
2023/11/10 04:05:31;;;;;;;4.40;1.90;;;;;;;11.10;73.26;97012.95;109196;1253;58953;-80
2023/11/10 04:07:59;;;;;;;34.70;16.00;;;;;;;11.09;73.45;97017.33;109184;1254;60245;-81
2023/11/10 04:10:26;;;;;;;9.70;6.50;;;;;;;11.11;73.45;97018.79;109215;1253;74227;-81
2023/11/10 04:12:53;;;;;;;7.60;3.90;;;;;;;11.08;73.63;97011.27;109201;1254;70438;-81
2023/11/10 04:15:20;;;;;;;7.10;3.10;;;;;;;11.06;73.98;97010.20;109223;1253;71538;-81
2023/11/10 04:17:46;;;;;;;6.80;3.80;;;;;;;11.07;73.82;97012.44;109195;1254;59487;-82
2023/11/10 04:20:13;;;;;;;6.50;3.80;;;;;;;11.05;73.93;97013.16;109251;1252;59234;-81
2023/11/10 04:22:41;;;;;;;6.70;2.80;;;;;;;11.07;73.80;97014.45;109178;1254;74578;-81
2023/11/10 04:25:09;;;;;;;5.90;3.20;;;;;;;11.04;74.04;97009.49;109201;1256;69483;-81
2023/11/10 04:27:36;;;;;;;11.20;3.60;;;;;;;10.99;74.29;97012.73;109327;1253;71331;-81
2023/11/10 04:30:03;;;;;;;4.30;3.00;;;;;;;10.94;74.63;97011.16;109202;1253;59244;-82
2023/11/10 04:32:30;;;;;;;5.20;2.80;;;;;;;10.88;74.86;97014.39;109158;1253;60852;-81
2023/11/10 04:34:56;;;;;;;4.20;2.70;;;;;;;10.87;74.76;97012.57;109140;1254;74303;-82
2023/11/10 04:37:23;;;;;;;6.00;2.80;;;;;;;10.83;75.09;97016.19;109157;1254;59543;-83
2023/11/10 04:39:52;;;;;;;7.60;2.60;;;;;;;10.81;75.04;97011.61;109124;1254;72606;-82
2023/11/10 04:42:19;;;;;;;3.40;2.50;;;;;;;10.78;75.36;97013.54;109140;1253;59109;-81
2023/11/10 04:44:46;;;;;;;16.50;6.10;;;;;;;10.74;75.45;97016.96;109153;1253;59908;-81
2023/11/10 04:47:13;;;;;;;4.80;2.90;;;;;;;10.72;75.48;97010.23;109123;1253;74300;-81
2023/11/10 04:49:39;;;;;;;2.70;2.20;;;;;;;10.73;75.33;97002.58;109153;1256;69902;-80
2023/11/10 04:52:06;;;;;;;6.60;3.40;;;;;;;10.76;75.26;96998.94;109171;1254;71378;-80
2023/11/10 04:54:34;;;;;;;5.40;2.50;;;;;;;10.73;75.26;97001.50;109211;1254;59052;-81
2023/11/10 04:57:00;;;;;;;5.40;3.00;;;;;;;10.70;75.32;97005.09;109225;1256;59682;-80
2023/11/10 04:59:28;;;;;;;8.30;4.00;;;;;;;10.68;75.46;96998.84;109214;1254;75110;-80
2023/11/10 05:01:57;;;;;;;5.10;2.90;;;;;;;10.62;75.89;97000.23;109212;1253;71454;-80
2023/11/10 05:04:24;;;;;;;5.20;3.20;;;;;;;10.58;76.08;96999.50;109197;1253;71094;-81
2023/11/10 05:06:51;;;;;;;5.50;3.10;;;;;;;10.50;76.09;96997.01;109177;1253;59576;-80
2023/11/10 05:09:21;;;;;;;10.00;4.10;;;;;;;10.42;76.27;96996.42;109215;1254;59912;-81
2023/11/10 05:11:49;;;;;;;15.40;7.80;;;;;;;10.39;76.30;96997.02;109179;1254;74640;-80
2023/11/10 05:14:15;;;;;;;12.40;5.40;;;;;;;10.35;76.53;96999.22;109210;1257;70346;-81
2023/11/10 05:16:42;;;;;;;12.60;5.70;;;;;;;10.28;76.65;96998.66;109205;1254;72266;-80
2023/11/10 05:19:08;;;;;;;13.10;6.40;;;;;;;10.29;76.50;96993.20;109167;1254;59088;-80
2023/11/10 05:21:35;;;;;;;16.90;9.90;;;;;;;10.30;76.78;96998.02;109183;1253;60944;-81
2023/11/10 05:24:01;;;;;;;19.20;11.50;;;;;;;10.27;76.86;96996.80;109180;1253;74462;-81
2023/11/10 05:26:30;;;;;;;11.60;6.10;;;;;;;10.24;76.87;96993.16;109223;1254;70031;-81
2023/11/10 05:28:56;;;;;;;9.90;5.60;;;;;;;10.24;76.97;96993.27;109135;1254;73413;-81
2023/11/10 05:31:23;;;;;;;14.70;10.00;;;;;;;10.21;77.00;96990.72;109170;1252;59064;-80
2023/11/10 05:33:51;;;;;;;11.70;6.60;;;;;;;10.13;77.49;96991.14;109189;1253;60218;-81
2023/11/10 05:36:18;;;;;;;15.10;8.10;;;;;;;10.05;77.44;96988.75;109242;1253;74275;-80
2023/11/10 05:38:44;;;;;;;21.30;10.90;;;;;;;10.04;77.64;96994.95;109149;1254;59500;-81
2023/11/10 05:41:11;;;;;;;14.60;8.00;;;;;;;10.02;77.89;96991.79;109240;1253;72254;-81
2023/11/10 05:43:38;;;;;;;19.00;14.40;;;;;;;10.03;77.80;96988.86;109182;1252;59062;-81
2023/11/10 05:46:05;;;;;;;11.10;7.70;;;;;;;10.03;78.08;96989.05;109173;1253;59384;-81
2023/11/10 05:48:32;;;;;;;19.70;8.20;;;;;;;10.01;78.18;96984.83;109162;1254;74545;-81
2023/11/10 05:50:59;;;;;;;10.10;5.20;;;;;;;9.99;78.15;96987.89;109350;1252;70827;-80
2023/11/10 05:53:26;;;;;;;8.40;6.50;;;;;;;10.05;78.21;96982.00;109157;1252;71757;-81
2023/11/10 05:55:52;;;;;;;12.70;6.40;;;;;;;10.10;78.24;96984.08;109205;1252;60209;-80
2023/11/10 05:58:19;;;;;;;12.50;5.30;;;;;;;10.15;78.06;96986.76;109122;1252;59200;-80
2023/11/10 06:00:45;;;;;;;6.30;3.60;;;;;;;10.22;77.93;96988.02;109185;1254;73239;-81
2023/11/10 06:03:12;;;;;;;6.60;3.80;;;;;;;10.25;78.03;96987.62;109100;1253;69546;-82
2023/11/10 06:05:39;;;;;;;9.70;8.40;;;;;;;10.30;77.82;96986.83;109215;1253;72492;-81
2023/11/10 06:08:06;;;;;;;5.80;4.10;;;;;;;10.34;77.82;96987.86;109237;1252;59108;-80
2023/11/10 06:10:32;;;;;;;9.90;4.70;;;;;;;10.39;77.53;96990.05;109229;1251;59680;-81
2023/11/10 06:12:59;;;;;;;11.20;4.90;;;;;;;10.42;77.64;96996.63;109161;1251;59325;-80
2023/11/10 06:15:25;;;;;;;11.10;6.00;;;;;;;10.46;77.49;96997.39;109225;1253;59744;-81
2023/11/10 06:17:52;;;;;;;7.10;4.80;;;;;;;10.49;77.51;96996.71;109143;1253;72565;-80
2023/11/10 06:20:20;;;;;;;5.40;3.40;;;;;;;10.54;77.18;96997.38;109222;1252;59031;-81
2023/11/10 06:22:46;;;;;;;5.10;2.60;;;;;;;10.58;77.19;97003.98;109289;1257;59248;-81
2023/11/10 06:25:14;;;;;;;23.30;13.50;;;;;;;10.61;77.18;97003.66;109266;1254;59875;-82
2023/11/10 06:27:41;;;;;;;11.70;6.50;;;;;;;10.67;76.93;97000.16;109190;1253;69895;-81
2023/11/10 06:30:09;;;;;;;9.50;6.10;;;;;;;10.68;77.06;97005.02;109209;1254;72971;-81
2023/11/10 06:32:36;;;;;;;7.10;3.80;;;;;;;10.69;77.15;96998.50;109143;1251;170329;-81
2023/11/10 06:35:03;;;;;;;6.80;3.90;;;;;;;10.70;77.15;97005.14;109260;1251;61169;-81
2023/11/10 06:37:31;;;;;;;12.20;5.60;;;;;;;10.72;77.45;97004.17;109182;1253;74806;-80
2023/11/10 06:39:57;;;;;;;9.00;7.90;;;;;;;10.73;77.34;97004.08;108951;1260;70199;-81
2023/11/10 06:42:26;;;;;;;7.80;3.10;;;;;;;10.75;76.93;97000.73;109136;1251;71824;-80
2023/11/10 06:44:52;;;;;;;13.30;7.10;;;;;;;10.78;76.65;97003.23;109181;1253;60067;-80
2023/11/10 06:47:19;;;;;;;28.10;9.60;;;;;;;10.77;77.10;97002.95;109085;1254;59121;-81
2023/11/10 06:49:45;;;;;;;8.00;6.40;;;;;;;10.79;77.01;97001.75;109229;1251;59144;-81
2023/11/10 06:52:12;;;;;;;5.70;3.90;;;;;;;10.79;77.29;97001.69;109162;1253;70616;-81
2023/11/10 06:54:38;;;;;;;7.60;4.90;;;;;;;10.79;77.56;97005.39;109060;1252;72720;-81
2023/11/10 06:57:05;;;;;;;7.90;4.50;;;;;;;10.78;77.59;97010.93;109137;1254;59158;-81
2023/11/10 06:59:32;;;;;;;9.30;3.40;;;;;;;10.77;77.75;97012.73;109120;1251;59397;-80
2023/11/10 07:01:58;;;;;;;12.50;5.60;;;;;;;10.77;77.87;97006.08;109087;1257;73311;-81
2023/11/10 07:04:25;;;;;;;22.10;9.30;;;;;;;10.77;77.72;97012.70;109180;1254;70185;-81
2023/11/10 07:06:51;;;;;;;16.80;7.20;;;;;;;10.81;77.54;97006.67;109118;1253;72482;-80
2023/11/10 07:09:19;;;;;;;10.90;5.00;;;;;;;10.87;76.98;97007.14;109196;1252;59718;-81
2023/11/10 07:11:45;;;;;;;11.40;4.90;;;;;;;10.91;77.05;97010.45;109193;1251;59912;-81
2023/11/10 07:14:12;;;;;;;7.70;4.10;;;;;;;10.93;77.24;97009.13;109182;1254;59373;-81
2023/11/10 07:16:38;;;;;;;10.30;4.00;;;;;;;10.94;76.73;97006.17;109195;1251;70691;-81
2023/11/10 07:19:05;;;;;;;7.90;3.20;;;;;;;10.98;76.65;97010.13;109110;1253;73692;-81
2023/11/10 07:21:32;;;;;;;6.40;2.60;;;;;;;11.01;76.61;97013.15;109154;1251;59638;-80
2023/11/10 07:23:59;;;;;;;6.40;3.80;;;;;;;11.07;76.54;97015.85;109159;1253;59339;-81
2023/11/10 07:26:26;;;;;;;10.30;4.00;;;;;;;11.09;76.89;97017.10;109194;1251;74525;-81
2023/11/10 07:28:53;;;;;;;9.30;4.40;;;;;;;11.11;76.60;97008.27;109171;1253;70303;-81
2023/11/10 07:31:19;;;;;;;7.60;3.70;;;;;;;11.12;77.01;97004.10;109089;1253;71542;-81
2023/11/10 07:33:46;;;;;;;6.20;3.40;;;;;;;11.14;76.84;96998.95;109146;1253;59562;-81
2023/11/10 07:36:14;;;;;;;3.80;2.80;;;;;;;11.15;76.24;97002.35;109223;1251;59838;-81
2023/11/10 07:38:40;;;;;;;6.70;3.70;;;;;;;11.20;76.08;97000.90;109177;1253;74291;-80
2023/11/10 07:41:07;;;;;;;10.60;3.70;;;;;;;11.23;76.07;97000.60;109166;1252;69080;-81
2023/11/10 07:43:34;;;;;;;11.80;5.10;;;;;;;11.25;76.02;96999.30;109200;1253;72061;-81
2023/11/10 07:46:04;;;;;;;8.80;5.10;;;;;;;11.27;75.74;97000.44;109163;1252;59751;-80
2023/11/10 07:48:35;;;;;;;4.80;2.80;;;;;;;11.29;75.45;96995.31;109137;1253;60397;-81
2023/11/10 07:51:03;;;;;;;11.20;4.80;;;;;;;11.33;75.39;96995.11;109162;1253;73691;-82
2023/11/10 07:53:30;;;;;;;7.50;3.00;;;;;;;11.34;75.31;97000.13;109133;1251;69569;-81
2023/11/10 07:55:58;;;;;;;4.40;2.30;;;;;;;11.35;75.06;97002.11;109162;1253;72044;-81
2023/11/10 07:58:24;;;;;;;4.10;2.00;;;;;;;11.37;74.68;96998.66;109158;1253;59743;-81
2023/11/10 08:00:51;;;;;;;6.80;2.70;;;;;;;11.40;74.18;96986.81;109045;1253;59441;-81
2023/11/10 08:03:18;;;;;;;5.30;3.10;;;;;;;11.38;73.94;96984.02;109084;1253;74559;-81
2023/11/10 08:05:46;;;;;;;4.00;2.00;;;;;;;11.37;74.13;96986.88;109168;1253;69732;-81
2023/11/10 08:08:13;;;;;;;8.60;4.10;;;;;;;11.36;74.03;96987.38;109109;1252;71923;-81
2023/11/10 08:10:39;;;;;;;6.80;3.40;;;;;;;11.39;74.03;96991.39;109145;1253;59796;-81
2023/11/10 08:13:06;;;;;;;5.40;2.80;;;;;;;11.41;74.23;96991.83;109127;1254;59727;-81
2023/11/10 08:15:33;;;;;;;4.90;2.80;;;;;;;11.45;74.24;96994.11;109135;1254;73032;-81
2023/11/10 08:18:00;;;;;;;7.90;3.10;;;;;;;11.46;74.06;96993.43;109272;1251;69646;-81
2023/11/10 08:20:27;;;;;;;6.10;2.50;;;;;;;11.49;74.09;96992.77;109201;1251;72973;-80
2023/11/10 08:22:53;;;;;;;8.40;3.40;;;;;;;11.55;73.92;96992.95;109053;1253;59881;-81
2023/11/10 08:25:21;;;;;;;4.00;2.20;;;;;;;11.57;73.64;96997.09;109340;1252;60543;-80
2023/11/10 08:27:47;;;;;;;7.20;3.50;;;;;;;11.59;73.80;96993.36;109198;1251;73432;-81
2023/11/10 08:30:14;;;;;;;6.90;3.20;;;;;;;11.65;73.57;96999.40;109223;1251;59270;-80
2023/11/10 08:32:41;;;;;;;6.90;4.10;;;;;;;11.71;73.27;97003.42;109102;1253;70459;-80
2023/11/10 08:35:08;;;;;;;8.90;4.00;;;;;;;11.80;73.55;97000.95;109089;1253;59721;-81
2023/11/10 08:37:35;;;;;;;6.80;4.30;;;;;;;11.87;73.43;96996.52;109081;1253;59809;-80
2023/11/10 08:40:05;;;;;;;3.90;2.70;;;;;;;11.94;72.86;96998.33;109200;1252;74776;-81
2023/11/10 08:42:31;;;;;;;6.40;2.90;;;;;;;12.02;72.92;96997.14;109107;1253;69811;-80
2023/11/10 08:44:58;;;;;;;6.00;2.20;;;;;;;12.07;72.30;96998.02;109129;1252;70831;-81
2023/11/10 08:47:24;;;;;;;6.20;2.70;;;;;;;12.08;71.74;96999.09;109091;1253;59923;-81
2023/11/10 08:49:53;;;;;;;5.40;3.00;;;;;;;12.08;71.91;97001.04;109093;1253;59200;-81
2023/11/10 08:52:19;;;;;;;7.50;3.80;;;;;;;12.10;71.21;97000.95;109174;1252;73546;-81
2023/11/10 08:54:46;;;;;;;9.10;4.10;;;;;;;12.08;71.47;97002.48;109127;1254;70936;-81
2023/11/10 08:57:13;;;;;;;7.00;3.40;;;;;;;12.09;71.18;97002.00;109178;1253;71776;-81
2023/11/10 08:59:40;;;;;;;6.30;2.50;;;;;;;12.11;71.36;97008.90;109220;1251;59449;-81
2023/11/10 09:02:06;;;;;;;5.60;3.40;;;;;;;12.11;71.14;97006.27;109212;1252;59919;-81
2023/11/10 09:04:33;;;;;;;4.60;3.40;;;;;;;12.16;71.33;97010.81;109208;1252;74536;-81
2023/11/10 09:07:00;;;;;;;7.00;2.70;;;;;;;12.16;71.42;97007.91;109116;1251;70917;-79
2023/11/10 09:09:28;;;;;;;2.60;1.50;;;;;;;12.19;71.87;97005.10;109114;1253;71441;-81
2023/11/10 09:11:54;;;;;;;4.80;2.50;;;;;;;12.20;71.57;97003.38;109174;1252;59564;-80
2023/11/10 09:14:21;;;;;;;8.80;4.20;;;;;;;12.26;70.90;96998.98;109176;1253;59299;-80
2023/11/10 09:16:48;;;;;;;3.60;2.30;;;;;;;12.31;70.82;96999.04;109147;1252;74200;-80
2023/11/10 09:19:14;;;;;;;8.70;5.10;;;;;;;12.39;70.80;96997.56;109071;1253;70927;-80
2023/11/10 09:21:41;;;;;;;6.10;3.00;;;;;;;12.47;70.89;97003.39;109116;1253;73311;-80
2023/11/10 09:24:08;;;;;;;5.10;3.30;;;;;;;12.55;70.79;96998.91;109183;1253;59079;-81
2023/11/10 09:26:35;;;;;;;6.50;2.20;;;;;;;12.66;70.21;97003.36;109199;1251;59160;-80
2023/11/10 09:29:02;;;;;;;5.60;2.30;;;;;;;12.78;69.71;97004.79;109241;1251;75108;-80
2023/11/10 09:31:29;;;;;;;3.40;2.30;;;;;;;12.85;69.70;97001.79;109182;1253;70296;-81
2023/11/10 09:33:55;;;;;;;3.30;2.30;;;;;;;12.95;69.23;96999.59;109134;1253;73023;-80
2023/11/10 09:36:24;;;;;;;4.40;2.30;;;;;;;12.97;69.51;96996.96;109042;1252;59678;-81
2023/11/10 09:38:52;;;;;;;4.70;2.10;;;;;;;12.98;68.52;96992.42;109083;1254;61486;-80
2023/11/10 09:41:21;;;;;;;3.50;2.80;;;;;;;12.93;68.59;96993.00;109181;1252;74198;-80
2023/11/10 09:43:47;;;;;;;;;;;;;;;12.89;68.17;96987.85;109155;1252;70735;-80
2023/11/10 09:46:17;;;;;;;5.50;2.70;;;;;;;12.84;68.09;96989.08;109162;1252;59108;-80
2023/11/10 09:48:44;;;;;;;8.20;3.40;;;;;;;12.73;68.37;96988.52;109075;1253;59577;-80
2023/11/10 09:51:11;;;;;;;4.80;2.50;;;;;;;12.64;68.34;96985.20;109166;1253;59709;-81
2023/11/10 09:53:39;;;;;;;5.10;2.50;;;;;;;12.57;67.38;96978.73;109089;1253;75509;-80
2023/11/10 09:56:06;;;;;;;9.70;3.10;;;;;;;12.47;67.84;96986.48;109215;1251;70399;-80
2023/11/10 09:58:33;;;;;;;7.40;3.50;;;;;;;12.41;68.12;96984.68;109136;1253;71095;-81
2023/11/10 10:01:00;;;;;;;9.20;3.80;;;;;;;12.33;68.19;96984.38;109235;1252;58913;-80
2023/11/10 10:03:28;;;;;;;8.90;3.80;;;;;;;12.30;68.44;96982.90;109087;1251;60035;-81
2023/11/10 10:05:59;;;;;;;7.80;2.40;;;;;;;12.25;68.40;96982.21;109150;1253;74990;-81
2023/11/10 10:08:25;;;;;;;8.00;3.90;;;;;;;12.26;68.82;96984.73;109102;1251;70293;-81
2023/11/10 10:10:52;;;;;;;5.70;3.40;;;;;;;12.25;68.96;96987.48;109188;1252;72291;-81
2023/11/10 10:13:19;;;;;;;5.90;3.00;;;;;;;12.24;68.95;96990.16;109126;1253;59048;-80
2023/11/10 10:15:46;;;;;;;6.80;3.80;;;;;;;12.22;68.88;96988.27;109227;1251;59875;-81
2023/11/10 10:18:14;;;;;;;14.20;6.90;;;;;;;12.14;68.94;96979.11;109184;1252;59124;-81
2023/11/10 10:20:40;;;;;;;19.70;9.20;;;;;;;12.12;69.29;96971.88;109243;1251;70056;-81
2023/11/10 10:23:10;;;;;;;6.90;4.40;;;;;;;12.04;69.80;96973.04;109118;1252;71441;-80
2023/11/10 10:25:38;;;;;;;4.50;2.10;;;;;;;12.00;70.38;96971.91;109123;1252;59460;-81
2023/11/10 10:28:07;;;;;;;4.30;2.70;;;;;;;11.97;70.98;96968.45;109147;1253;59851;-81
2023/11/10 10:30:35;;;;;;;5.80;3.10;;;;;;;11.93;71.50;96962.20;109182;1252;72250;-79
2023/11/10 10:33:02;;;;;;;6.30;2.60;;;;;;;11.96;71.67;96956.42;109182;1251;69603;-81
2023/11/10 10:35:28;;;;;;;6.00;3.40;;;;;;;11.99;71.79;96958.14;109240;1251;71452;-80
2023/11/10 10:37:57;;;;;;;7.30;4.00;;;;;;;12.06;71.72;96956.38;109112;1253;59482;-80
2023/11/10 10:40:23;;;;;;;9.00;4.00;;;;;;;12.06;71.91;96954.14;109197;1252;60120;-81
2023/11/10 10:42:50;;;;;;;7.60;3.90;;;;;;;12.10;72.04;96959.45;109124;1253;59489;-80
2023/11/10 10:45:18;;;;;;;3.90;2.50;;;;;;;12.13;72.23;96956.59;109128;1253;70501;-81
2023/11/10 10:47:45;;;;;;;7.10;3.50;;;;;;;12.21;72.26;96955.77;109220;1253;72349;-81
2023/11/10 10:50:11;;;;;;;15.20;8.40;;;;;;;12.28;71.66;96954.95;109149;1253;59259;-82
2023/11/10 10:52:38;;;;;;;9.70;5.50;;;;;;;12.30;71.66;96955.44;109062;1253;59359;-81
2023/11/10 10:55:05;;;;;;;11.70;5.20;;;;;;;12.34;71.38;96958.56;109120;1252;74275;-81
2023/11/10 10:57:37;;;;;;;9.50;6.00;;;;;;;12.32;71.57;96958.43;109045;1253;68836;-81
2023/11/10 11:00:16;;;;;;;10.80;6.30;;;;;;;12.35;71.40;96952.35;109200;1252;73412;-81
2023/11/10 11:02:47;;;;;;;7.50;4.00;;;;;;;12.37;71.51;96950.08;109129;1253;59083;-81
2023/11/10 11:05:25;;;;;;;8.20;4.40;;;;;;;12.40;71.70;96946.73;109111;1253;61234;-81
2023/11/10 11:08:31;;;;;;;9.40;4.50;;;;;;;12.44;71.34;96940.96;109082;1252;72483;-81
2023/11/10 11:11:21;;;;;;;8.60;5.00;;;;;;;12.42;71.57;96941.52;109146;1252;69539;-81
2023/11/10 11:14:22;;;;;;;5.10;2.90;;;;;;;12.44;71.33;96941.13;109224;1252;71603;-81
2023/11/10 11:17:07;;;;;;;7.00;4.10;;;;;;;12.42;71.60;96935.36;109170;1252;59074;-81
2023/11/10 11:19:34;;;;;;;8.40;4.50;;;;;;;12.44;71.98;96937.00;109191;1252;58958;-81
2023/11/10 11:22:01;;;;;;;9.20;5.00;;;;;;;12.48;71.99;96931.25;109019;1253;74311;-81
2023/11/10 11:24:32;;;;;;;5.60;4.20;;;;;;;12.50;72.10;96927.55;109136;1252;70661;-81
2023/11/10 11:27:03;;;;;;;21.80;14.10;;;;;;;12.52;72.24;96923.52;109043;1254;72727;-81